sensor_id;sensor_type;location;lat;lon;timestamp;temperature;humidity
80216;DHT22;69532;37.974;23.708;2023-05-10T00:01:25;22.80;41.20
80216;DHT22;69532;37.974;23.708;2023-05-10T00:03:51;22.80;40.00
80216;DHT22;69532;37.974;23.708;2023-05-10T00:06:17;22.80;40.10
80216;DHT22;69532;37.974;23.708;2023-05-10T00:08:42;22.80;40.10
80216;DHT22;69532;37.974;23.708;2023-05-10T00:11:08;22.80;40.20
80216;DHT22;69532;37.974;23.708;2023-05-10T00:13:34;22.80;40.10
80216;DHT22;69532;37.974;23.708;2023-05-10T00:15:59;22.80;40.20
80216;DHT22;69532;37.974;23.708;2023-05-10T00:18:25;22.80;40.20
80216;DHT22;69532;37.974;23.708;2023-05-10T00:20:51;22.80;40.20
80216;DHT22;69532;37.974;23.708;2023-05-10T00:23:16;22.80;40.20
80216;DHT22;69532;37.974;23.708;2023-05-10T00:25:42;22.80;40.20
80216;DHT22;69532;37.974;23.708;2023-05-10T00:28:08;22.80;40.20
80216;DHT22;69532;37.974;23.708;2023-05-10T00:30:33;22.80;40.20
80216;DHT22;69532;37.974;23.708;2023-05-10T00:32:59;22.80;40.30
80216;DHT22;69532;37.974;23.708;2023-05-10T00:35:25;22.80;40.30
80216;DHT22;69532;37.974;23.708;2023-05-10T00:37:51;22.80;40.30
80216;DHT22;69532;37.974;23.708;2023-05-10T00:40:17;22.70;40.30
80216;DHT22;69532;37.974;23.708;2023-05-10T00:42:43;22.70;40.40
80216;DHT22;69532;37.974;23.708;2023-05-10T00:45:08;22.70;40.40
80216;DHT22;69532;37.974;23.708;2023-05-10T00:47:34;22.70;40.40
80216;DHT22;69532;37.974;23.708;2023-05-10T00:50:00;22.70;40.40
80216;DHT22;69532;37.974;23.708;2023-05-10T00:52:30;22.70;40.40
80216;DHT22;69532;37.974;23.708;2023-05-10T00:54:56;22.70;40.40
80216;DHT22;69532;37.974;23.708;2023-05-10T00:57:22;22.70;40.40
80216;DHT22;69532;37.974;23.708;2023-05-10T00:59:48;22.70;40.90
80216;DHT22;69532;37.974;23.708;2023-05-10T01:02:14;22.70;40.50
80216;DHT22;69532;37.974;23.708;2023-05-10T01:04:40;22.60;40.40
80216;DHT22;69532;37.974;23.708;2023-05-10T01:07:06;22.60;40.30
80216;DHT22;69532;37.974;23.708;2023-05-10T01:09:32;22.60;40.30
80216;DHT22;69532;37.974;23.708;2023-05-10T01:11:59;22.60;40.30
80216;DHT22;69532;37.974;23.708;2023-05-10T01:14:26;22.60;40.30
80216;DHT22;69532;37.974;23.708;2023-05-10T01:16:52;22.70;40.30
80216;DHT22;69532;37.974;23.708;2023-05-10T01:19:29;22.70;40.20
80216;DHT22;69532;37.974;23.708;2023-05-10T01:35:39;22.60;40.10
80216;DHT22;69532;37.974;23.708;2023-05-10T01:38:33;22.60;40.10
80216;DHT22;69532;37.974;23.708;2023-05-10T01:46:35;22.50;40.00
80216;DHT22;69532;37.974;23.708;2023-05-10T01:49:07;22.50;40.00
80216;DHT22;69532;37.974;23.708;2023-05-10T01:51:47;22.50;40.00
80216;DHT22;69532;37.974;23.708;2023-05-10T01:54:15;22.60;40.00
80216;DHT22;69532;37.974;23.708;2023-05-10T01:56:44;22.60;40.00
80216;DHT22;69532;37.974;23.708;2023-05-10T01:59:18;22.50;39.90
80216;DHT22;69532;37.974;23.708;2023-05-10T02:01:44;22.60;39.90
80216;DHT22;69532;37.974;23.708;2023-05-10T02:04:14;22.50;39.90
80216;DHT22;69532;37.974;23.708;2023-05-10T02:06:41;22.50;40.00
80216;DHT22;69532;37.974;23.708;2023-05-10T02:09:09;22.50;40.00
80216;DHT22;69532;37.974;23.708;2023-05-10T02:11:38;22.50;40.00
80216;DHT22;69532;37.974;23.708;2023-05-10T02:14:07;22.50;40.00
80216;DHT22;69532;37.974;23.708;2023-05-10T02:16:35;22.50;39.90
80216;DHT22;69532;37.974;23.708;2023-05-10T02:19:02;22.50;39.90
80216;DHT22;69532;37.974;23.708;2023-05-10T02:21:29;22.50;39.80
80216;DHT22;69532;37.974;23.708;2023-05-10T02:23:57;22.50;39.80
80216;DHT22;69532;37.974;23.708;2023-05-10T02:26:24;22.50;39.80
80216;DHT22;69532;37.974;23.708;2023-05-10T02:28:52;22.60;39.90
80216;DHT22;69532;37.974;23.708;2023-05-10T02:31:19;22.60;39.70
80216;DHT22;69532;37.974;23.708;2023-05-10T02:33:46;22.60;39.60
80216;DHT22;69532;37.974;23.708;2023-05-10T02:36:12;22.60;39.60
80216;DHT22;69532;37.974;23.708;2023-05-10T02:38:39;22.60;39.70
80216;DHT22;69532;37.974;23.708;2023-05-10T02:41:07;22.60;39.60
80216;DHT22;69532;37.974;23.708;2023-05-10T02:43:35;22.60;39.70
80216;DHT22;69532;37.974;23.708;2023-05-10T02:46:01;22.50;39.70
80216;DHT22;69532;37.974;23.708;2023-05-10T02:48:28;22.50;39.70
80216;DHT22;69532;37.974;23.708;2023-05-10T02:50:56;22.50;39.70
80216;DHT22;69532;37.974;23.708;2023-05-10T02:53:31;22.50;39.80
80216;DHT22;69532;37.974;23.708;2023-05-10T02:55:59;22.50;40.90
80216;DHT22;69532;37.974;23.708;2023-05-10T02:58:26;22.50;39.90
80216;DHT22;69532;37.974;23.708;2023-05-10T03:00:52;22.40;39.90
80216;DHT22;69532;37.974;23.708;2023-05-10T03:03:18;22.40;39.80
80216;DHT22;69532;37.974;23.708;2023-05-10T03:05:43;22.40;39.80
80216;DHT22;69532;37.974;23.708;2023-05-10T03:08:09;22.50;39.70
80216;DHT22;69532;37.974;23.708;2023-05-10T03:10:55;22.40;39.80
80216;DHT22;69532;37.974;23.708;2023-05-10T03:14:21;22.50;40.80
80216;DHT22;69532;37.974;23.708;2023-05-10T03:16:24;22.50;39.70
80216;DHT22;69532;37.974;23.708;2023-05-10T03:19:24;22.50;39.70
80216;DHT22;69532;37.974;23.708;2023-05-10T03:21:53;22.50;39.70
80216;DHT22;69532;37.974;23.708;2023-05-10T03:24:23;22.40;39.60
80216;DHT22;69532;37.974;23.708;2023-05-10T03:26:54;22.50;39.60
80216;DHT22;69532;37.974;23.708;2023-05-10T03:29:22;22.40;39.50
80216;DHT22;69532;37.974;23.708;2023-05-10T03:31:48;22.40;39.50
80216;DHT22;69532;37.974;23.708;2023-05-10T03:34:14;22.50;39.50
80216;DHT22;69532;37.974;23.708;2023-05-10T03:36:39;22.50;39.50
80216;DHT22;69532;37.974;23.708;2023-05-10T03:39:05;22.40;39.40
80216;DHT22;69532;37.974;23.708;2023-05-10T03:41:31;22.40;39.40
80216;DHT22;69532;37.974;23.708;2023-05-10T03:43:56;22.40;39.40
80216;DHT22;69532;37.974;23.708;2023-05-10T03:46:22;22.40;39.40
80216;DHT22;69532;37.974;23.708;2023-05-10T03:48:48;22.40;39.40
80216;DHT22;69532;37.974;23.708;2023-05-10T03:51:13;22.40;39.30
80216;DHT22;69532;37.974;23.708;2023-05-10T03:53:39;22.40;39.30
80216;DHT22;69532;37.974;23.708;2023-05-10T03:56:05;22.40;39.30
80216;DHT22;69532;37.974;23.708;2023-05-10T03:58:30;22.50;39.30
80216;DHT22;69532;37.974;23.708;2023-05-10T04:00:56;22.50;39.20
80216;DHT22;69532;37.974;23.708;2023-05-10T04:03:22;22.50;39.10
80216;DHT22;69532;37.974;23.708;2023-05-10T04:05:48;22.50;39.10
80216;DHT22;69532;37.974;23.708;2023-05-10T04:08:14;22.50;39.10
80216;DHT22;69532;37.974;23.708;2023-05-10T04:10:41;22.50;39.20
80216;DHT22;69532;37.974;23.708;2023-05-10T04:13:07;22.50;39.10
80216;DHT22;69532;37.974;23.708;2023-05-10T04:15:33;22.50;39.00
80216;DHT22;69532;37.974;23.708;2023-05-10T04:17:58;22.50;39.10
80216;DHT22;69532;37.974;23.708;2023-05-10T04:20:24;22.50;39.60
80216;DHT22;69532;37.974;23.708;2023-05-10T04:22:50;22.60;40.10
80216;DHT22;69532;37.974;23.708;2023-05-10T04:25:16;22.50;40.00
80216;DHT22;69532;37.974;23.708;2023-05-10T04:27:42;22.50;39.80
80216;DHT22;69532;37.974;23.708;2023-05-10T04:30:08;22.60;39.60
80216;DHT22;69532;37.974;23.708;2023-05-10T04:32:34;22.50;39.40
80216;DHT22;69532;37.974;23.708;2023-05-10T04:34:59;22.50;39.50
80216;DHT22;69532;37.974;23.708;2023-05-10T04:37:25;22.50;39.40
80216;DHT22;69532;37.974;23.708;2023-05-10T04:39:51;22.50;39.40
80216;DHT22;69532;37.974;23.708;2023-05-10T04:42:17;22.50;39.30
80216;DHT22;69532;37.974;23.708;2023-05-10T04:44:42;22.50;39.30
80216;DHT22;69532;37.974;23.708;2023-05-10T04:47:08;22.50;39.30
80216;DHT22;69532;37.974;23.708;2023-05-10T04:49:34;22.50;39.30
80216;DHT22;69532;37.974;23.708;2023-05-10T04:52:00;22.50;39.30
80216;DHT22;69532;37.974;23.708;2023-05-10T04:54:25;22.50;39.30
80216;DHT22;69532;37.974;23.708;2023-05-10T04:56:51;22.50;39.20
80216;DHT22;69532;37.974;23.708;2023-05-10T04:59:17;22.60;39.20
80216;DHT22;69532;37.974;23.708;2023-05-10T05:01:43;22.60;39.10
80216;DHT22;69532;37.974;23.708;2023-05-10T05:04:08;22.60;39.10
80216;DHT22;69532;37.974;23.708;2023-05-10T05:06:34;22.60;39.00
80216;DHT22;69532;37.974;23.708;2023-05-10T05:09:00;22.60;38.90
80216;DHT22;69532;37.974;23.708;2023-05-10T05:11:25;22.60;38.90
80216;DHT22;69532;37.974;23.708;2023-05-10T05:13:51;22.60;38.80
80216;DHT22;69532;37.974;23.708;2023-05-10T05:16:17;22.70;38.80
80216;DHT22;69532;37.974;23.708;2023-05-10T05:18:42;22.80;38.70
80216;DHT22;69532;37.974;23.708;2023-05-10T05:21:15;22.80;38.50
80216;DHT22;69532;37.974;23.708;2023-05-10T05:23:41;22.90;38.30
80216;DHT22;69532;37.974;23.708;2023-05-10T05:26:07;23.00;38.10
80216;DHT22;69532;37.974;23.708;2023-05-10T05:28:33;23.10;38.00
80216;DHT22;69532;37.974;23.708;2023-05-10T05:31:05;23.20;37.80
80216;DHT22;69532;37.974;23.708;2023-05-10T05:33:31;23.20;37.60
80216;DHT22;69532;37.974;23.708;2023-05-10T05:35:56;23.30;37.60
80216;DHT22;69532;37.974;23.708;2023-05-10T05:38:22;23.30;37.40
80216;DHT22;69532;37.974;23.708;2023-05-10T05:40:49;23.40;37.40
80216;DHT22;69532;37.974;23.708;2023-05-10T05:43:14;23.40;37.20
80216;DHT22;69532;37.974;23.708;2023-05-10T05:45:40;23.40;37.00
80216;DHT22;69532;37.974;23.708;2023-05-10T05:48:06;23.50;37.00
80216;DHT22;69532;37.974;23.708;2023-05-10T05:50:32;23.50;36.80
80216;DHT22;69532;37.974;23.708;2023-05-10T05:52:57;23.60;36.70
80216;DHT22;69532;37.974;23.708;2023-05-10T05:55:23;23.60;36.60
80216;DHT22;69532;37.974;23.708;2023-05-10T05:57:49;23.70;36.50
80216;DHT22;69532;37.974;23.708;2023-05-10T06:00:15;23.70;36.40
80216;DHT22;69532;37.974;23.708;2023-05-10T06:02:41;23.70;36.20
80216;DHT22;69532;37.974;23.708;2023-05-10T06:05:07;23.80;36.20
80216;DHT22;69532;37.974;23.708;2023-05-10T06:07:33;23.80;36.00
80216;DHT22;69532;37.974;23.708;2023-05-10T06:09:59;23.80;36.00
80216;DHT22;69532;37.974;23.708;2023-05-10T06:12:24;23.90;35.90
80216;DHT22;69532;37.974;23.708;2023-05-10T06:14:50;23.90;35.80
80216;DHT22;69532;37.974;23.708;2023-05-10T06:17:16;24.00;35.60
80216;DHT22;69532;37.974;23.708;2023-05-10T06:19:42;24.00;35.50
80216;DHT22;69532;37.974;23.708;2023-05-10T06:22:07;24.10;35.30
80216;DHT22;69532;37.974;23.708;2023-05-10T06:24:33;24.10;35.20
80216;DHT22;69532;37.974;23.708;2023-05-10T06:26:58;24.20;35.00
80216;DHT22;69532;37.974;23.708;2023-05-10T06:29:26;24.20;34.90
80216;DHT22;69532;37.974;23.708;2023-05-10T06:31:51;24.30;34.90
80216;DHT22;69532;37.974;23.708;2023-05-10T06:34:17;24.30;34.70
80216;DHT22;69532;37.974;23.708;2023-05-10T06:36:42;24.40;34.60
80216;DHT22;69532;37.974;23.708;2023-05-10T06:39:08;24.40;34.40
80216;DHT22;69532;37.974;23.708;2023-05-10T06:41:34;24.40;34.20
80216;DHT22;69532;37.974;23.708;2023-05-10T06:44:00;24.40;34.20
80216;DHT22;69532;37.974;23.708;2023-05-10T06:46:25;24.50;34.20
80216;DHT22;69532;37.974;23.708;2023-05-10T06:48:51;24.60;34.10
80216;DHT22;69532;37.974;23.708;2023-05-10T06:51:17;24.60;33.90
80216;DHT22;69532;37.974;23.708;2023-05-10T06:53:43;24.70;33.80
80216;DHT22;69532;37.974;23.708;2023-05-10T06:56:08;24.70;33.60
80216;DHT22;69532;37.974;23.708;2023-05-10T06:58:34;24.70;33.50
80216;DHT22;69532;37.974;23.708;2023-05-10T07:01:04;24.80;33.40
80216;DHT22;69532;37.974;23.708;2023-05-10T07:03:31;24.80;33.20
80216;DHT22;69532;37.974;23.708;2023-05-10T07:06:03;24.80;33.20
80216;DHT22;69532;37.974;23.708;2023-05-10T07:08:32;24.90;33.10
80216;DHT22;69532;37.974;23.708;2023-05-10T07:11:05;24.90;33.00
80216;DHT22;69532;37.974;23.708;2023-05-10T07:13:35;25.00;32.90
80216;DHT22;69532;37.974;23.708;2023-05-10T07:16:01;25.00;32.80
80216;DHT22;69532;37.974;23.708;2023-05-10T07:18:27;25.10;32.80
80216;DHT22;69532;37.974;23.708;2023-05-10T07:20:53;25.10;32.70
80216;DHT22;69532;37.974;23.708;2023-05-10T07:23:19;25.10;32.60
80216;DHT22;69532;37.974;23.708;2023-05-10T07:25:48;25.10;32.50
80216;DHT22;69532;37.974;23.708;2023-05-10T07:28:15;25.20;32.60
80216;DHT22;69532;37.974;23.708;2023-05-10T07:30:42;25.30;32.50
80216;DHT22;69532;37.974;23.708;2023-05-10T07:33:09;25.30;32.20
80216;DHT22;69532;37.974;23.708;2023-05-10T07:35:35;25.30;32.20
80216;DHT22;69532;37.974;23.708;2023-05-10T07:38:01;25.30;32.20
80216;DHT22;69532;37.974;23.708;2023-05-10T07:40:28;25.30;32.20
80216;DHT22;69532;37.974;23.708;2023-05-10T07:42:54;25.30;32.20
80216;DHT22;69532;37.974;23.708;2023-05-10T07:45:19;25.30;32.30
80216;DHT22;69532;37.974;23.708;2023-05-10T07:47:45;25.30;32.10
80216;DHT22;69532;37.974;23.708;2023-05-10T07:50:11;25.20;32.10
80216;DHT22;69532;37.974;23.708;2023-05-10T07:52:36;25.20;32.10
80216;DHT22;69532;37.974;23.708;2023-05-10T07:55:02;25.20;32.10
80216;DHT22;69532;37.974;23.708;2023-05-10T07:57:28;25.20;32.10
80216;DHT22;69532;37.974;23.708;2023-05-10T07:59:54;25.20;32.10
80216;DHT22;69532;37.974;23.708;2023-05-10T08:02:20;25.20;32.20
80216;DHT22;69532;37.974;23.708;2023-05-10T08:04:45;25.20;32.20
80216;DHT22;69532;37.974;23.708;2023-05-10T08:07:11;25.20;32.20
80216;DHT22;69532;37.974;23.708;2023-05-10T08:09:37;25.20;32.20
80216;DHT22;69532;37.974;23.708;2023-05-10T08:12:03;25.20;32.20
80216;DHT22;69532;37.974;23.708;2023-05-10T08:14:29;25.20;32.30
80216;DHT22;69532;37.974;23.708;2023-05-10T08:16:55;25.20;32.10
80216;DHT22;69532;37.974;23.708;2023-05-10T08:19:21;25.20;32.10
80216;DHT22;69532;37.974;23.708;2023-05-10T08:21:48;25.20;32.20
80216;DHT22;69532;37.974;23.708;2023-05-10T08:24:14;25.20;32.10
80216;DHT22;69532;37.974;23.708;2023-05-10T08:26:40;25.20;32.10
80216;DHT22;69532;37.974;23.708;2023-05-10T08:29:06;25.20;32.10
80216;DHT22;69532;37.974;23.708;2023-05-10T08:31:32;25.20;32.00
80216;DHT22;69532;37.974;23.708;2023-05-10T08:33:57;25.20;32.10
80216;DHT22;69532;37.974;23.708;2023-05-10T08:36:23;25.20;32.00
80216;DHT22;69532;37.974;23.708;2023-05-10T08:38:53;25.10;32.10
80216;DHT22;69532;37.974;23.708;2023-05-10T08:41:23;25.10;31.90
80216;DHT22;69532;37.974;23.708;2023-05-10T08:43:53;25.10;31.80
80216;DHT22;69532;37.974;23.708;2023-05-10T08:46:20;25.10;31.80
80216;DHT22;69532;37.974;23.708;2023-05-10T08:48:48;25.10;31.80
80216;DHT22;69532;37.974;23.708;2023-05-10T08:51:16;25.10;31.80
80216;DHT22;69532;37.974;23.708;2023-05-10T08:53:43;25.10;31.80
80216;DHT22;69532;37.974;23.708;2023-05-10T08:56:09;25.10;31.70
80216;DHT22;69532;37.974;23.708;2023-05-10T08:58:35;25.20;32.00
80216;DHT22;69532;37.974;23.708;2023-05-10T09:01:05;25.20;31.70
80216;DHT22;69532;37.974;23.708;2023-05-10T09:03:31;25.10;31.60
80216;DHT22;69532;37.974;23.708;2023-05-10T09:05:58;25.20;31.70
80216;DHT22;69532;37.974;23.708;2023-05-10T09:08:24;25.20;31.70
80216;DHT22;69532;37.974;23.708;2023-05-10T09:10:54;25.20;31.70
80216;DHT22;69532;37.974;23.708;2023-05-10T09:13:22;25.20;31.70
80216;DHT22;69532;37.974;23.708;2023-05-10T09:15:48;25.20;31.80
80216;DHT22;69532;37.974;23.708;2023-05-10T09:18:14;25.20;31.70
80216;DHT22;69532;37.974;23.708;2023-05-10T09:20:40;25.10;31.70
80216;DHT22;69532;37.974;23.708;2023-05-10T09:23:06;25.20;31.70
80216;DHT22;69532;37.974;23.708;2023-05-10T09:25:32;25.20;31.70
80216;DHT22;69532;37.974;23.708;2023-05-10T09:28:01;25.10;31.60
80216;DHT22;69532;37.974;23.708;2023-05-10T09:30:29;25.10;31.60
80216;DHT22;69532;37.974;23.708;2023-05-10T09:32:59;25.10;31.60
80216;DHT22;69532;37.974;23.708;2023-05-10T09:35:27;25.10;31.60
80216;DHT22;69532;37.974;23.708;2023-05-10T09:37:56;25.10;31.60
80216;DHT22;69532;37.974;23.708;2023-05-10T09:40:23;25.20;31.60
80216;DHT22;69532;37.974;23.708;2023-05-10T09:45:22;25.20;31.50
80216;DHT22;69532;37.974;23.708;2023-05-10T09:47:49;25.10;31.50
80216;DHT22;69532;37.974;23.708;2023-05-10T09:50:15;25.20;31.40
80216;DHT22;69532;37.974;23.708;2023-05-10T09:55:14;25.20;31.40
80216;DHT22;69532;37.974;23.708;2023-05-10T09:57:40;25.10;31.40
80216;DHT22;69532;37.974;23.708;2023-05-10T10:00:07;25.20;31.40
80216;DHT22;69532;37.974;23.708;2023-05-10T10:02:33;25.20;31.30
80216;DHT22;69532;37.974;23.708;2023-05-10T10:05:01;25.10;31.20
80216;DHT22;69532;37.974;23.708;2023-05-10T10:07:27;25.20;31.40
80216;DHT22;69532;37.974;23.708;2023-05-10T10:09:53;25.20;31.30
80216;DHT22;69532;37.974;23.708;2023-05-10T10:12:19;25.20;31.30
80216;DHT22;69532;37.974;23.708;2023-05-10T10:14:48;25.20;31.60
80216;DHT22;69532;37.974;23.708;2023-05-10T10:17:16;25.20;31.20
80216;DHT22;69532;37.974;23.708;2023-05-10T10:19:42;25.20;31.30
80216;DHT22;69532;37.974;23.708;2023-05-10T10:22:08;25.20;31.20
80216;DHT22;69532;37.974;23.708;2023-05-10T10:24:36;25.20;31.20
80216;DHT22;69532;37.974;23.708;2023-05-10T10:31:01;25.20;31.20
80216;DHT22;69532;37.974;23.708;2023-05-10T10:33:10;25.20;31.20
80216;DHT22;69532;37.974;23.708;2023-05-10T10:35:39;25.20;31.30
80216;DHT22;69532;37.974;23.708;2023-05-10T10:38:08;25.10;31.20
80216;DHT22;69532;37.974;23.708;2023-05-10T10:40:34;25.20;31.30
80216;DHT22;69532;37.974;23.708;2023-05-10T10:43:26;25.10;31.20
80216;DHT22;69532;37.974;23.708;2023-05-10T10:46:15;25.10;31.20
80216;DHT22;69532;37.974;23.708;2023-05-10T10:48:47;25.10;31.20
80216;DHT22;69532;37.974;23.708;2023-05-10T10:51:14;25.10;31.20
80216;DHT22;69532;37.974;23.708;2023-05-10T10:53:40;25.10;31.30
80216;DHT22;69532;37.974;23.708;2023-05-10T10:56:13;25.10;31.40
80216;DHT22;69532;37.974;23.708;2023-05-10T10:58:42;25.10;31.30
80216;DHT22;69532;37.974;23.708;2023-05-10T11:03:40;25.10;31.40
80216;DHT22;69532;37.974;23.708;2023-05-10T11:06:06;25.10;31.40
80216;DHT22;69532;37.974;23.708;2023-05-10T11:08:34;25.10;31.40
80216;DHT22;69532;37.974;23.708;2023-05-10T11:11:06;25.10;31.50
80216;DHT22;69532;37.974;23.708;2023-05-10T11:13:45;25.10;31.60
80216;DHT22;69532;37.974;23.708;2023-05-10T11:16:24;25.10;31.70
80216;DHT22;69532;37.974;23.708;2023-05-10T11:19:01;25.10;31.80
80216;DHT22;69532;37.974;23.708;2023-05-10T11:21:28;25.00;31.80
80216;DHT22;69532;37.974;23.708;2023-05-10T11:23:58;25.10;31.80
80216;DHT22;69532;37.974;23.708;2023-05-10T11:26:29;25.00;31.80
80216;DHT22;69532;37.974;23.708;2023-05-10T11:28:55;25.10;32.00
80216;DHT22;69532;37.974;23.708;2023-05-10T11:31:22;25.00;32.00
80216;DHT22;69532;37.974;23.708;2023-05-10T11:33:49;25.00;32.00
80216;DHT22;69532;37.974;23.708;2023-05-10T11:36:20;25.10;32.00
80216;DHT22;69532;37.974;23.708;2023-05-10T11:38:47;25.10;32.10
80216;DHT22;69532;37.974;23.708;2023-05-10T11:41:14;25.00;32.00
80216;DHT22;69532;37.974;23.708;2023-05-10T11:43:41;25.00;32.10
80216;DHT22;69532;37.974;23.708;2023-05-10T11:46:11;25.00;32.30
80216;DHT22;69532;37.974;23.708;2023-05-10T11:48:41;25.00;32.40
80216;DHT22;69532;37.974;23.708;2023-05-10T11:51:10;25.00;32.40
80216;DHT22;69532;37.974;23.708;2023-05-10T11:53:36;25.00;32.40
80216;DHT22;69532;37.974;23.708;2023-05-10T11:56:10;25.00;32.50
80216;DHT22;69532;37.974;23.708;2023-05-10T11:58:37;25.00;32.60
80216;DHT22;69532;37.974;23.708;2023-05-10T12:01:04;25.00;32.60
80216;DHT22;69532;37.974;23.708;2023-05-10T12:03:31;25.00;32.70
80216;DHT22;69532;37.974;23.708;2023-05-10T12:05:57;25.00;32.80
80216;DHT22;69532;37.974;23.708;2023-05-10T12:08:25;25.00;32.90
80216;DHT22;69532;37.974;23.708;2023-05-10T12:10:52;25.00;32.80
80216;DHT22;69532;37.974;23.708;2023-05-10T12:13:20;25.00;32.90
80216;DHT22;69532;37.974;23.708;2023-05-10T12:15:46;25.00;32.90
80216;DHT22;69532;37.974;23.708;2023-05-10T12:18:13;25.00;32.80
80216;DHT22;69532;37.974;23.708;2023-05-10T12:20:39;25.00;32.90
80216;DHT22;69532;37.974;23.708;2023-05-10T12:23:07;25.00;32.90
80216;DHT22;69532;37.974;23.708;2023-05-10T12:25:35;25.00;33.00
80216;DHT22;69532;37.974;23.708;2023-05-10T12:28:03;25.00;33.00
80216;DHT22;69532;37.974;23.708;2023-05-10T12:30:34;25.00;33.00
80216;DHT22;69532;37.974;23.708;2023-05-10T12:33:02;25.00;33.00
80216;DHT22;69532;37.974;23.708;2023-05-10T12:35:32;25.00;33.20
80216;DHT22;69532;37.974;23.708;2023-05-10T12:37:58;25.00;33.20
80216;DHT22;69532;37.974;23.708;2023-05-10T12:40:24;25.00;33.20
80216;DHT22;69532;37.974;23.708;2023-05-10T12:42:49;25.00;33.10
80216;DHT22;69532;37.974;23.708;2023-05-10T12:45:17;25.00;33.20
80216;DHT22;69532;37.974;23.708;2023-05-10T12:47:43;25.00;33.30
80216;DHT22;69532;37.974;23.708;2023-05-10T12:50:09;25.00;33.40
80216;DHT22;69532;37.974;23.708;2023-05-10T12:52:35;24.90;33.20
80216;DHT22;69532;37.974;23.708;2023-05-10T12:55:01;24.90;33.30
80216;DHT22;69532;37.974;23.708;2023-05-10T12:57:28;24.90;33.30
80216;DHT22;69532;37.974;23.708;2023-05-10T12:59:55;24.90;33.20
80216;DHT22;69532;37.974;23.708;2023-05-10T13:02:21;24.90;33.20
80216;DHT22;69532;37.974;23.708;2023-05-10T13:04:48;24.90;33.30
80216;DHT22;69532;37.974;23.708;2023-05-10T13:07:14;24.90;33.40
80216;DHT22;69532;37.974;23.708;2023-05-10T13:09:40;24.90;33.40
80216;DHT22;69532;37.974;23.708;2023-05-10T13:12:05;24.90;33.50
80216;DHT22;69532;37.974;23.708;2023-05-10T13:14:31;24.90;33.50
80216;DHT22;69532;37.974;23.708;2023-05-10T13:16:57;24.90;33.50
80216;DHT22;69532;37.974;23.708;2023-05-10T13:19:23;24.90;33.50
80216;DHT22;69532;37.974;23.708;2023-05-10T13:21:48;24.90;33.60
80216;DHT22;69532;37.974;23.708;2023-05-10T13:24:14;24.90;33.70
80216;DHT22;69532;37.974;23.708;2023-05-10T13:26:40;24.80;33.70
80216;DHT22;69532;37.974;23.708;2023-05-10T13:29:07;24.90;33.70
80216;DHT22;69532;37.974;23.708;2023-05-10T13:31:33;24.80;33.60
80216;DHT22;69532;37.974;23.708;2023-05-10T13:34:00;24.90;33.70
80216;DHT22;69532;37.974;23.708;2023-05-10T13:36:25;24.80;33.80
80216;DHT22;69532;37.974;23.708;2023-05-10T13:38:51;24.80;33.80
80216;DHT22;69532;37.974;23.708;2023-05-10T13:41:17;24.80;33.80
80216;DHT22;69532;37.974;23.708;2023-05-10T13:43:43;24.80;33.80
80216;DHT22;69532;37.974;23.708;2023-05-10T13:46:09;24.80;33.90
80216;DHT22;69532;37.974;23.708;2023-05-10T13:48:35;24.80;33.90
80216;DHT22;69532;37.974;23.708;2023-05-10T13:51:02;24.80;34.00
80216;DHT22;69532;37.974;23.708;2023-05-10T13:53:28;24.80;34.00
80216;DHT22;69532;37.974;23.708;2023-05-10T13:55:54;24.80;34.00
80216;DHT22;69532;37.974;23.708;2023-05-10T13:58:19;24.80;34.20
80216;DHT22;69532;37.974;23.708;2023-05-10T14:00:45;24.80;34.10
80216;DHT22;69532;37.974;23.708;2023-05-10T14:03:11;24.80;34.10
80216;DHT22;69532;37.974;23.708;2023-05-10T14:05:37;24.80;34.10
80216;DHT22;69532;37.974;23.708;2023-05-10T14:08:02;24.80;34.10
80216;DHT22;69532;37.974;23.708;2023-05-10T14:10:29;24.80;34.20
80216;DHT22;69532;37.974;23.708;2023-05-10T14:12:55;24.80;34.20
80216;DHT22;69532;37.974;23.708;2023-05-10T14:15:21;24.80;34.20
80216;DHT22;69532;37.974;23.708;2023-05-10T14:17:47;24.80;34.30
80216;DHT22;69532;37.974;23.708;2023-05-10T14:20:13;24.80;34.40
80216;DHT22;69532;37.974;23.708;2023-05-10T14:22:38;24.70;34.30
80216;DHT22;69532;37.974;23.708;2023-05-10T14:25:04;24.70;34.30
80216;DHT22;69532;37.974;23.708;2023-05-10T14:27:30;24.70;34.30
80216;DHT22;69532;37.974;23.708;2023-05-10T14:29:55;24.70;34.30
80216;DHT22;69532;37.974;23.708;2023-05-10T14:32:21;24.70;34.40
80216;DHT22;69532;37.974;23.708;2023-05-10T14:34:47;24.70;34.40
80216;DHT22;69532;37.974;23.708;2023-05-10T14:37:13;24.70;34.40
80216;DHT22;69532;37.974;23.708;2023-05-10T14:39:39;24.70;34.40
80216;DHT22;69532;37.974;23.708;2023-05-10T14:42:05;24.70;34.40
80216;DHT22;69532;37.974;23.708;2023-05-10T14:44:30;24.70;34.50
80216;DHT22;69532;37.974;23.708;2023-05-10T14:46:56;24.70;34.40
80216;DHT22;69532;37.974;23.708;2023-05-10T14:49:22;24.70;34.40
80216;DHT22;69532;37.974;23.708;2023-05-10T14:51:51;24.70;34.50
80216;DHT22;69532;37.974;23.708;2023-05-10T14:54:17;24.70;34.60
80216;DHT22;69532;37.974;23.708;2023-05-10T14:56:42;24.70;34.60
80216;DHT22;69532;37.974;23.708;2023-05-10T14:59:08;24.60;34.50
80216;DHT22;69532;37.974;23.708;2023-05-10T15:01:34;24.60;34.60
80216;DHT22;69532;37.974;23.708;2023-05-10T15:04:03;24.60;34.70
80216;DHT22;69532;37.974;23.708;2023-05-10T15:06:33;24.60;34.70
80216;DHT22;69532;37.974;23.708;2023-05-10T15:09:00;24.60;34.70
80216;DHT22;69532;37.974;23.708;2023-05-10T15:11:26;24.60;34.80
80216;DHT22;69532;37.974;23.708;2023-05-10T15:13:52;24.60;34.80
80216;DHT22;69532;37.974;23.708;2023-05-10T15:16:17;24.60;34.90
80216;DHT22;69532;37.974;23.708;2023-05-10T15:18:43;24.50;34.80
80216;DHT22;69532;37.974;23.708;2023-05-10T15:21:09;24.50;35.00
80216;DHT22;69532;37.974;23.708;2023-05-10T15:23:35;24.50;35.00
80216;DHT22;69532;37.974;23.708;2023-05-10T15:26:01;24.50;35.10
80216;DHT22;69532;37.974;23.708;2023-05-10T15:28:27;24.40;35.10
80216;DHT22;69532;37.974;23.708;2023-05-10T15:30:53;24.40;35.20
80216;DHT22;69532;37.974;23.708;2023-05-10T15:33:18;24.40;35.30
80216;DHT22;69532;37.974;23.708;2023-05-10T15:35:44;24.40;35.30
80216;DHT22;69532;37.974;23.708;2023-05-10T15:38:10;24.40;35.30
80216;DHT22;69532;37.974;23.708;2023-05-10T15:40:36;24.30;35.30
80216;DHT22;69532;37.974;23.708;2023-05-10T15:43:01;24.30;35.30
80216;DHT22;69532;37.974;23.708;2023-05-10T15:45:27;24.30;35.40